Time;durP1;ratioP1;P1;durP2;ratioP2;P2;SDS_P1;SDS_P2;PMS_P1;PMS_P2;Temp;Humidity;BMP_temperature;BMP_pressure;BME280_temperature;BME280_humidity;BME280_pressure;Samples;Min_cycle;Max_cycle;Signal;HPM_P1;HPM_P2
2022/01/22 00:01:43;;;;;;;26.35;7.38;;;;;;;-146.64;100.00;41778.09;5050399;28;20027;-75
2022/01/22 00:04:10;;;;;;;20.63;6.75;;;;;;;-146.64;100.00;41843.63;5043100;28;20113;-74
2022/01/22 00:06:35;;;;;;;21.90;6.30;;;;;;;-146.64;100.00;41774.00;5076502;28;20032;-74
2022/01/22 00:09:01;;;;;;;23.23;7.03;;;;;;;-146.64;100.00;41788.34;5057859;28;20117;-75
2022/01/22 00:11:34;;;;;;;26.35;6.13;;;;;;;-146.64;100.00;41860.03;5088702;28;20421;-75
2022/01/22 00:16:43;;;;;;;25.02;6.93;;;;;;;-146.64;100.00;41823.16;5059034;28;20039;-75
2022/01/22 00:19:10;;;;;;;19.88;6.20;;;;;;;-146.64;100.00;42036.16;5051472;28;20029;-75
2022/01/22 00:21:35;;;;;;;26.38;6.63;;;;;;;-146.64;100.00;42032.06;5061141;28;20037;-75
2022/01/22 00:24:02;;;;;;;22.10;7.85;;;;;;;-146.64;100.00;41622.47;5070192;28;20043;-74
2022/01/22 00:26:28;;;;;;;27.25;7.90;;;;;;;-146.64;100.00;41866.16;5081488;28;20064;-75
2022/01/22 00:28:54;;;;;;;22.15;7.90;;;;;;;-146.64;100.00;41972.66;5037791;28;20119;-77
2022/01/22 00:31:19;;;;;;;24.80;7.30;;;;;;;-146.64;100.00;42150.84;5040490;28;20035;-75
2022/01/22 00:33:44;;;;;;;14.27;6.30;;;;;;;-146.64;100.00;42111.91;5036499;28;20051;-74
2022/01/22 00:36:10;;;;;;;18.23;6.40;;;;;;;-146.64;100.00;41978.81;5067468;28;20513;-74
2022/01/22 00:38:35;;;;;;;13.63;6.03;;;;;;;-146.64;100.00;41853.88;5036363;28;20453;-75
2022/01/22 00:41:00;;;;;;;18.20;6.28;;;;;;;-146.64;100.00;42015.66;5052749;28;20024;-75
2022/01/22 00:43:26;;;;;;;16.70;6.68;;;;;;;-146.64;100.00;42322.88;5045445;28;20032;-75
2022/01/22 00:45:51;;;;;;;15.38;6.20;;;;;;;-146.64;100.00;42234.81;5049842;28;20024;-75
2022/01/22 00:48:17;;;;;;;18.25;7.53;;;;;;;-146.64;100.00;42597.34;5035622;28;20024;-75
2022/01/22 00:50:43;;;;;;;28.67;6.47;;;;;;;-146.64;100.00;42691.56;5034808;28;20111;-75
2022/01/22 00:53:09;;;;;;;13.35;6.80;;;;;;;-146.64;100.00;42937.38;5039212;28;20028;-75
2022/01/22 00:55:34;;;;;;;29.58;7.45;;;;;;;-146.64;100.00;43068.47;5069826;28;20662;-75
2022/01/22 00:57:59;;;;;;;18.77;7.15;;;;;;;-146.64;100.00;42802.19;5038715;28;20044;-75
2022/01/22 01:00:25;;;;;;;15.73;6.28;;;;;;;-146.64;100.00;43299.97;5055145;28;20025;-74
2022/01/22 01:02:50;;;;;;;19.13;6.63;;;;;;;-146.64;100.00;43297.94;5055383;28;20039;-75
2022/01/22 01:05:16;;;;;;;16.95;7.93;;;;;;;-146.64;100.00;43361.44;5055938;28;20120;-74
2022/01/22 01:07:42;;;;;;;19.42;6.60;;;;;;;-146.64;100.00;43683.09;5055909;28;20033;-74
2022/01/22 01:10:14;;;;;;;17.27;6.60;;;;;;;-146.64;100.00;43228.28;5052923;28;20530;-75
2022/01/22 01:12:41;;;;;;;18.40;7.47;;;;;;;-146.64;100.00;43404.47;5044973;28;20603;-74
2022/01/22 01:15:23;;;;;;;13.95;7.10;;;;;;;-146.64;100.00;44193.28;5055533;28;20450;-74
2022/01/22 01:34:23;;;;;;;22.30;6.95;;;;;;;-146.64;100.00;47639.41;5055238;28;20024;-74
2022/01/22 01:36:49;;;;;;;17.80;8.73;;;;;;;-146.64;100.00;46983.16;5070388;28;20016;-75
2022/01/22 01:39:22;;;;;;;24.50;6.95;;;;;;;-146.64;100.00;47565.56;5050412;28;20465;-74
2022/01/22 01:41:56;;;;;;;17.15;8.15;;;;;;;-146.64;100.00;48582.94;5049616;28;20082;-74
2022/01/22 01:44:23;;;;;;;19.85;8.23;;;;;;;-146.64;100.00;48441.38;5039577;28;20119;-74
2022/01/22 01:46:51;;;;;;;25.40;9.23;;;;;;;-146.64;100.00;49153.28;5033926;28;20024;-75
2022/01/22 01:49:18;;;;;;;17.60;7.75;;;;;;;-146.64;100.00;50109.50;5068612;28;20035;-74
2022/01/22 01:51:44;;;;;;;42.10;8.73;;;;;;;-146.64;100.00;50581.53;5037959;28;20029;-74
2022/01/22 01:59:23;;;;;;;23.02;9.15;;;;;;;-146.64;100.00;51497.03;5057519;28;20036;-74
2022/01/22 02:01:48;;;;;;;19.58;9.05;;;;;;;-146.64;100.00;51993.88;5047507;28;20112;-74
2022/01/22 02:04:14;;;;;;;22.00;9.23;;;;;;;-146.64;100.00;52640.66;5072374;28;20063;-74
2022/01/22 02:06:41;;;;;;;24.75;9.95;;;;;;;-146.64;100.00;51891.22;5034741;28;20495;-74
2022/01/22 02:09:08;;;;;;;30.65;10.40;;;;;;;-146.64;100.00;53123.28;5071327;28;20017;-74
2022/01/22 02:11:35;;;;;;;23.60;10.02;;;;;;;-146.64;100.00;54228.38;5054814;28;20454;-74
2022/01/22 02:25:01;;;;;;;33.88;11.50;;;;;;;-146.64;100.00;57672.94;5051595;28;20137;-74
2022/01/22 02:27:26;;;;;;;25.55;11.40;;;;;;;-146.64;100.00;58989.09;5047449;28;20025;-75
2022/01/22 02:29:51;;;;;;;24.60;11.27;;;;;;;-146.64;100.00;60305.66;5052324;28;20062;-74
2022/01/22 02:32:55;;;;;;;27.80;11.70;;;;;;;-146.64;100.00;60832.41;5053101;28;20028;-74
2022/01/22 02:35:31;;;;;;;33.28;11.73;;;;;;;-146.64;100.00;61886.13;5057266;28;20384;-74
2022/01/22 02:38:06;;;;;;;26.80;11.73;;;;;;;-146.64;100.00;61622.69;5035234;28;20116;-75
2022/01/22 02:40:40;;;;;;;23.45;11.65;;;;;;;-146.64;100.00;62413.09;5071848;28;20488;-75
2022/01/22 02:43:05;;;;;;;36.60;12.60;;;;;;;-146.64;100.00;62940.13;5054922;28;20063;-74
2022/01/22 02:45:32;;;;;;;22.83;11.45;;;;;;;-146.64;100.00;63730.81;5052245;28;20055;-74
2022/01/22 02:47:57;;;;;;;43.50;14.43;;;;;;;-146.64;100.00;64785.31;5053150;28;20028;-75
2022/01/22 02:50:23;;;;;;;27.45;13.52;;;;;;;-146.64;100.00;65048.97;5050834;28;20497;-74
2022/01/22 02:52:48;;;;;;;26.15;12.75;;;;;;;-146.64;100.00;66103.78;5047858;28;20025;-74
2022/01/22 02:55:16;;;;;;;31.55;13.50;;;;;;;-146.64;100.00;66631.31;5050740;28;20048;-75
2022/01/22 02:57:43;;;;;;;37.30;14.07;;;;;;;-146.64;100.00;67950.44;5053960;28;20111;-75
2022/01/22 03:00:12;;;;;;;31.02;14.23;;;;;;;-146.64;100.00;68214.31;5054313;28;20029;-75
2022/01/22 03:02:38;;;;;;;33.55;14.50;;;;;;;-146.64;100.00;68214.31;5057623;28;20024;-74
2022/01/22 03:05:05;;;;;;;30.33;14.75;;;;;;;-146.64;100.00;69269.97;5070675;28;20104;-74
2022/01/22 03:07:30;;;;;;;27.05;15.88;;;;;;;-146.64;100.00;70061.91;5062386;28;20052;-76
2022/01/22 03:10:01;;;;;;;32.97;15.02;;;;;;;-146.64;100.00;70854.00;5052451;28;20059;-74
2022/01/22 03:27:49;;;;;;;30.80;15.25;;;;;;;-146.64;100.00;73495.47;5067078;28;20090;-74
2022/01/22 03:30:15;;;;;;;35.70;16.08;;;;;;;-146.64;100.00;73495.47;5070560;28;20024;-74
2022/01/22 03:32:44;;;;;;;29.17;15.95;;;;;;;-146.64;100.00;74288.22;5032160;28;20028;-74
2022/01/22 03:35:13;;;;;;;31.40;15.13;;;;;;;-146.64;100.00;74023.97;5069550;28;20426;-74
2022/01/22 03:37:40;;;;;;;39.30;16.90;;;;;;;-146.64;100.00;74288.22;5033567;28;20016;-74
2022/01/22 03:40:07;;;;;;;34.45;15.13;;;;;;;-146.64;100.00;74552.53;5049275;28;20539;-75
2022/01/22 03:42:34;;;;;;;40.42;16.38;;;;;;;-146.64;100.00;75609.88;5036575;28;20031;-74
2022/01/22 03:44:59;;;;;;;40.13;17.02;;;;;;;-146.64;100.00;75609.88;5068278;28;20032;-75
2022/01/22 03:47:25;;;;;;;36.55;15.48;;;;;;;-146.64;100.00;75609.88;5069134;28;20118;-75
2022/01/22 03:49:51;;;;;;;34.13;15.38;;;;;;;-146.64;100.00;76138.66;5071746;28;20434;-74
2022/01/22 03:52:17;;;;;;;35.05;14.70;;;;;;;-146.64;100.00;76667.50;5034625;28;20078;-74
2022/01/22 03:54:43;;;;;;;38.97;15.53;;;;;;;-146.64;100.00;77460.91;5050289;28;20408;-74
2022/01/22 03:57:09;;;;;;;30.27;12.70;;;;;;;-146.64;100.00;77460.91;5049473;28;20296;-75
2022/01/22 03:59:34;;;;;;;37.45;13.98;;;;;;;-146.64;100.00;77989.94;5033276;28;20025;-74
2022/01/22 04:04:34;;;;;;;35.17;13.32;;;;;;;-146.64;100.00;79048.19;5049900;28;20025;-74
2022/01/22 04:09:45;;;;;;;31.75;12.40;;;;;;;-146.64;100.00;79048.19;5043831;28;20527;-73
2022/01/22 04:12:14;;;;;;;27.80;11.52;;;;;;;-146.64;100.00;79048.19;5029082;28;20029;-74
2022/01/22 04:14:47;;;;;;;24.08;12.82;;;;;;;-146.64;100.00;79577.41;5044832;28;20121;-74
2022/01/22 04:25:11;;;;;;;36.58;11.55;;;;;;;-146.64;100.00;79048.19;5051556;28;20452;-74
2022/01/22 04:27:36;;;;;;;30.13;10.70;;;;;;;-146.64;100.00;79048.19;5049937;28;20029;-75
2022/01/22 04:30:02;;;;;;;26.98;11.73;;;;;;;-146.64;100.00;78783.59;5042233;28;20036;-75
2022/01/22 04:32:29;;;;;;;29.47;10.23;;;;;;;-146.64;100.00;79048.19;5036325;28;20021;-74
2022/01/22 04:34:54;;;;;;;27.95;11.45;;;;;;;-146.64;100.00;79048.19;5034692;28;20175;-74
2022/01/22 04:37:21;;;;;;;19.05;9.20;;;;;;;-146.64;100.00;79048.19;5054155;28;20493;-75
2022/01/22 04:39:47;;;;;;;26.07;9.17;;;;;;;-146.64;100.00;78783.59;5052561;28;20400;-74
2022/01/22 04:42:13;;;;;;;29.90;7.47;;;;;;;-146.64;100.00;77989.94;5052398;28;20270;-74
2022/01/22 04:44:48;;;;;;;27.23;7.60;;;;;;;-146.64;100.00;76667.50;5051153;28;20033;-75
2022/01/22 04:47:25;;;;;;;19.23;6.35;;;;;;;-146.64;100.00;75609.88;5045766;28;20464;-75
2022/01/22 04:54:58;;;;;;;16.48;5.00;;;;;;;-146.64;100.00;73495.47;5046875;28;20032;-74
2022/01/22 04:55:29;;;;;;;17.33;4.65;;;;;;;-146.64;100.00;72702.84;5041372;28;20056;-75
2022/01/22 04:57:54;;;;;;;16.23;4.60;;;;;;;-146.64;100.00;71910.38;5051719;28;20437;-75
2022/01/22 05:00:20;;;;;;;20.20;4.50;;;;;;;-146.64;100.00;72174.50;5036290;28;20029;-75
2022/01/22 05:02:45;;;;;;;18.40;4.35;;;;;;;-146.64;100.00;71910.38;5052674;28;20032;-74
2022/01/22 05:05:11;;;;;;;23.10;4.35;;;;;;;-146.64;100.00;71118.06;5047230;28;20032;-74
2022/01/22 05:07:36;;;;;;;16.00;4.82;;;;;;;-146.64;100.00;71382.16;5046692;28;20067;-74
2022/01/22 05:10:03;;;;;;;21.67;4.95;;;;;;;-146.64;100.00;71382.16;5051621;28;20040;-74
2022/01/22 05:12:29;;;;;;;15.07;4.30;;;;;;;-146.64;100.00;71118.06;5035086;28;20112;-74
2022/01/22 05:14:54;;;;;;;17.65;4.47;;;;;;;-146.64;100.00;71118.06;5053096;28;20044;-74
2022/01/22 05:17:20;;;;;;;24.45;4.43;;;;;;;-146.64;100.00;71382.16;5052324;28;20385;-74
2022/01/22 05:19:55;;;;;;;15.00;4.15;;;;;;;-146.64;100.00;71118.06;5033068;28;20025;-74
2022/01/22 05:25:08;;;;;;;22.17;4.13;;;;;;;-146.64;100.00;71382.16;5051136;28;20114;-74
2022/01/22 05:30:49;;;;;;;19.10;4.18;;;;;;;-146.64;100.00;72702.84;5050602;28;20025;-74
2022/01/22 05:33:16;;;;;;;21.83;4.32;;;;;;;-146.64;100.00;72438.66;5010830;28;20413;-74
2022/01/22 05:38:31;;;;;;;12.55;3.70;;;;;;;-146.64;100.00;72702.84;5006921;28;20146;-75
2022/01/22 05:40:58;;;;;;;19.35;3.90;;;;;;;-146.64;100.00;72438.66;4996436;28;20497;-74
2022/01/22 05:43:24;;;;;;;18.33;3.78;;;;;;;-146.64;100.00;71910.38;5014097;28;20037;-74
2022/01/22 05:45:49;;;;;;;15.63;3.40;;;;;;;-146.64;100.00;72174.50;5012953;28;20033;-74
2022/01/22 05:48:15;;;;;;;12.55;3.15;;;;;;;-146.64;100.00;71646.25;5013267;28;20156;-75
2022/01/22 05:53:27;;;;;;;20.05;3.35;;;;;;;-146.64;100.00;70854.00;5014814;28;20057;-75
2022/01/22 06:01:10;;;;;;;18.67;3.75;;;;;;;-146.64;100.00;71646.25;5019226;28;20033;-74
2022/01/22 06:03:36;;;;;;;10.60;3.28;;;;;;;-146.64;100.00;71910.38;5007541;28;20041;-74
2022/01/22 06:06:01;;;;;;;21.00;4.00;;;;;;;-146.64;100.00;71118.06;5043857;28;20033;-75
2022/01/22 06:08:33;;;;;;;11.20;3.95;;;;;;;-146.64;100.00;70325.94;5031124;28;20028;-74
2022/01/22 06:11:00;;;;;;;13.82;3.30;;;;;;;-146.64;100.00;68742.09;5060015;28;20021;-75
2022/01/22 06:13:43;;;;;;;12.52;3.88;;;;;;;-146.64;100.00;67158.91;5035026;28;20029;-74
2022/01/22 06:16:09;;;;;;;14.52;3.85;;;;;;;-146.64;100.00;65840.06;5051314;28;20096;-74
2022/01/22 06:18:34;;;;;;;19.67;2.80;;;;;;;-146.64;100.00;62940.13;5030829;28;20063;-75
2022/01/22 06:21:00;;;;;;;14.13;2.45;;;;;;;-146.64;100.00;63994.41;5046648;28;20078;-74
2022/01/22 06:23:25;;;;;;;12.63;2.95;;;;;;;-146.64;100.00;63994.41;5047773;28;20075;-74
2022/01/22 06:25:51;;;;;;;16.87;3.57;;;;;;;-146.64;100.00;62676.59;5049414;28;20033;-75
2022/01/22 06:28:16;;;;;;;10.60;2.38;;;;;;;-146.64;100.00;60832.41;5051219;28;20079;-75
2022/01/22 06:30:44;;;;;;;12.23;3.00;;;;;;;-146.64;100.00;60305.66;5045050;28;20086;-74
2022/01/22 06:33:09;;;;;;;18.08;2.83;;;;;;;-146.64;100.00;59252.38;5023872;28;20434;-74
2022/01/22 06:35:35;;;;;;;13.85;2.70;;;;;;;-146.64;100.00;56620.34;5034357;28;20116;-74
2022/01/22 06:38:02;;;;;;;14.45;2.33;;;;;;;-146.64;100.00;56094.16;5049910;28;20480;-75
2022/01/22 06:42:54;;;;;;;15.50;2.92;;;;;;;-146.64;100.00;52476.41;5047415;28;20077;-74
2022/01/22 06:45:21;;;;;;;7.32;2.85;;;;;;;-146.64;100.00;55041.97;5068069;28;20029;-74
2022/01/22 06:47:46;;;;;;;12.25;3.22;;;;;;;-146.64;100.00;55568.03;5050679;28;20029;-75
2022/01/22 06:50:11;;;;;;;8.75;2.15;;;;;;;-146.64;100.00;55305.00;5068004;28;20049;-75
2022/01/22 06:52:38;;;;;;;14.75;2.92;;;;;;;-146.64;100.00;55831.06;5032027;28;20048;-74
2022/01/22 06:55:04;;;;;;;;;;;;;;;-146.64;100.00;57672.94;5024955;28;20059;-74
2022/01/22 06:57:30;;;;;;;11.10;3.22;;;;;;;-146.64;100.00;59252.38;5049353;28;19917;-74
2022/01/22 06:59:55;;;;;;;15.20;3.65;;;;;;;-146.64;100.00;59778.97;5051190;28;20506;-75
2022/01/22 07:02:23;;;;;;;11.82;3.97;;;;;;;-146.64;100.00;58989.09;5051318;28;20025;-74
2022/01/22 07:04:48;;;;;;;16.38;3.85;;;;;;;-146.64;100.00;59252.38;5034107;28;20485;-74
2022/01/22 07:07:13;;;;;;;16.65;3.97;;;;;;;-146.64;100.00;58199.34;5049422;28;20493;-74
2022/01/22 07:09:39;;;;;;;14.55;4.07;;;;;;;-146.64;100.00;60305.66;5048145;28;20392;-74
2022/01/22 07:12:05;;;;;;;25.73;4.72;;;;;;;-146.64;100.00;62413.09;5027766;28;20072;-74
2022/01/22 07:14:30;;;;;;;15.68;4.28;;;;;;;-146.64;100.00;63730.81;5041211;28;20485;-74
2022/01/22 07:16:56;;;;;;;22.40;4.95;;;;;;;-146.64;100.00;64258.03;5036040;28;20095;-74
2022/01/22 07:19:21;;;;;;;22.50;4.28;;;;;;;-146.64;100.00;65576.34;5030997;28;20063;-74
2022/01/22 07:21:56;;;;;;;27.25;6.82;;;;;;;-146.64;100.00;66631.31;5045521;28;20036;-74
2022/01/22 07:24:26;;;;;;;24.48;6.07;;;;;;;-146.64;100.00;66631.31;5047687;28;20473;-75
2022/01/22 07:26:52;;;;;;;18.77;5.28;;;;;;;-146.64;100.00;66367.56;5048083;28;20028;-74
2022/01/22 07:29:18;;;;;;;16.55;5.30;;;;;;;-146.64;100.00;67158.91;5031324;28;20473;-74
2022/01/22 07:31:43;;;;;;;17.17;5.15;;;;;;;-146.64;100.00;66895.09;5063405;28;20045;-74
2022/01/22 07:34:08;;;;;;;15.50;5.63;;;;;;;-146.64;100.00;67158.91;5044086;28;20403;-75
2022/01/22 07:36:34;;;;;;;23.00;5.35;;;;;;;-146.64;100.00;68214.31;5027360;28;20052;-74
2022/01/22 07:38:59;;;;;;;23.67;6.50;;;;;;;-146.64;100.00;67686.56;5045240;28;20029;-74
2022/01/22 07:41:25;;;;;;;24.27;6.30;;;;;;;-146.64;100.00;67422.72;5046090;28;20044;-74
2022/01/22 07:43:50;;;;;;;23.27;6.18;;;;;;;-146.64;100.00;67950.44;5048450;28;20389;-74
2022/01/22 07:46:16;;;;;;;24.08;6.75;;;;;;;-146.64;100.00;68214.31;5046719;28;20029;-74
2022/01/22 07:48:41;;;;;;;20.75;6.63;;;;;;;-146.64;100.00;66367.56;5027641;28;20116;-74
2022/01/22 07:51:06;;;;;;;18.25;6.57;;;;;;;-146.64;100.00;64521.66;5046587;28;20028;-74
2022/01/22 07:53:32;;;;;;;20.90;6.40;;;;;;;-146.64;100.00;62413.09;5026384;28;20060;-74
2022/01/22 07:55:57;;;;;;;15.80;5.82;;;;;;;-146.64;100.00;62413.09;5028570;28;20045;-74
2022/01/22 07:58:22;;;;;;;18.85;5.65;;;;;;;-146.64;100.00;60042.31;5047484;28;20082;-74
2022/01/22 08:00:48;;;;;;;19.75;6.15;;;;;;;-146.64;100.00;59778.97;5033835;28;20029;-74
2022/01/22 08:03:13;;;;;;;12.60;5.75;;;;;;;-146.64;100.00;60569.03;5048595;28;20562;-74
2022/01/22 08:05:38;;;;;;;26.55;6.55;;;;;;;-146.64;100.00;61095.81;5051088;28;20029;-74
2022/01/22 08:08:04;;;;;;;19.20;6.10;;;;;;;-146.64;100.00;58989.09;5042096;28;20056;-74
2022/01/22 08:10:30;;;;;;;31.98;7.10;;;;;;;-146.64;100.00;58199.34;5031284;28;20025;-74
2022/01/22 08:12:55;;;;;;;20.08;6.40;;;;;;;-146.64;100.00;57672.94;5043894;28;20116;-74
2022/01/22 08:15:21;;;;;;;14.50;5.72;;;;;;;-146.64;100.00;58462.56;5024385;28;20116;-74
2022/01/22 08:17:47;;;;;;;15.07;6.30;;;;;;;-146.64;100.00;56620.34;5028060;28;20017;-74
2022/01/22 08:20:14;;;;;;;17.65;6.63;;;;;;;-146.64;100.00;52632.47;5050512;28;20105;-74
2022/01/22 08:22:40;;;;;;;17.30;6.35;;;;;;;-146.64;100.00;53069.88;5049788;28;20028;-74
2022/01/22 08:25:06;;;;;;;23.83;6.17;;;;;;;-146.64;100.00;51850.16;5034079;28;20548;-75
2022/01/22 08:27:39;;;;;;;17.02;5.95;;;;;;;-146.64;100.00;53431.34;5033636;28;20119;-74
2022/01/22 08:30:06;;;;;;;13.30;6.07;;;;;;;-146.64;100.00;50169.00;5049326;28;20111;-74
2022/01/22 08:32:56;;;;;;;16.70;6.55;;;;;;;-146.64;100.00;49288.69;5033743;28;20432;-74
2022/01/22 08:38:01;;;;;;;14.80;5.90;;;;;;;-146.64;100.00;50885.31;5060751;28;20092;-74
2022/01/22 08:40:26;;;;;;;18.33;6.75;;;;;;;-146.64;100.00;50238.78;5047926;28;20108;-75
2022/01/22 08:42:51;;;;;;;14.80;6.47;;;;;;;-146.64;100.00;49227.13;5050096;28;20043;-74
2022/01/22 08:45:17;;;;;;;17.63;6.50;;;;;;;-146.64;100.00;49169.69;5050560;28;20021;-75
2022/01/22 08:47:42;;;;;;;15.38;6.35;;;;;;;-146.64;100.00;49223.03;5044103;28;20476;-74
2022/01/22 08:50:08;;;;;;;25.73;6.90;;;;;;;-146.64;100.00;48845.53;5042804;28;20045;-75
2022/01/22 08:52:35;;;;;;;19.98;6.97;;;;;;;-146.64;100.00;48066.00;5049921;28;20052;-74
2022/01/22 08:55:03;;;;;;;16.42;6.13;;;;;;;-146.64;100.00;46462.34;5024944;28;20047;-74
2022/01/22 08:57:28;;;;;;;21.92;6.25;;;;;;;-146.64;100.00;47565.56;5061958;28;20020;-74
2022/01/22 08:59:53;;;;;;;14.02;6.63;;;;;;;-146.64;100.00;46540.25;5049011;28;20130;-74
2022/01/22 09:02:19;;;;;;;17.15;6.43;;;;;;;-146.64;100.00;47126.69;5028562;28;20119;-75
2022/01/22 09:04:45;;;;;;;19.67;6.15;;;;;;;-146.64;100.00;46327.03;5029857;28;20622;-75
2022/01/22 09:07:10;;;;;;;14.57;5.75;;;;;;;-146.64;100.00;46454.13;5047236;28;20074;-74
2022/01/22 09:09:36;;;;;;;18.33;6.45;;;;;;;-146.64;100.00;47614.78;5032445;28;20032;-75
2022/01/22 09:12:04;;;;;;;15.00;6.05;;;;;;;-146.64;100.00;46011.28;5032439;28;20032;-75
2022/01/22 09:14:29;;;;;;;18.10;6.38;;;;;;;-146.64;100.00;45379.94;5061926;28;20060;-77
2022/01/22 09:16:56;;;;;;;22.25;7.15;;;;;;;-146.64;100.00;45105.25;5050370;28;20456;-76
2022/01/22 09:19:27;;;;;;;25.73;6.95;;;;;;;-146.64;100.00;45605.41;5049300;28;20078;-76
2022/01/22 09:21:52;;;;;;;16.80;6.65;;;;;;;-146.64;100.00;46999.56;5048130;28;20477;-76
2022/01/22 09:24:17;;;;;;;19.35;6.40;;;;;;;-146.64;100.00;46187.59;5038294;28;20033;-76
2022/01/22 09:26:43;;;;;;;19.08;6.28;;;;;;;-146.64;100.00;45363.53;5046956;28;20032;-76
2022/01/22 09:29:09;;;;;;;16.13;5.90;;;;;;;-146.64;100.00;46638.66;5030935;28;20021;-76
2022/01/22 09:31:34;;;;;;;26.20;8.57;;;;;;;-146.64;100.00;46212.22;5031127;28;20049;-76
2022/01/22 09:34:01;;;;;;;18.77;6.95;;;;;;;-146.64;100.00;46263.47;5025042;28;20071;-76
2022/01/22 09:36:28;;;;;;;14.48;6.20;;;;;;;-146.64;100.00;46105.59;5029304;28;20101;-76
2022/01/22 09:38:53;;;;;;;;;;;;;;;-146.64;100.00;44523.22;5045644;28;20040;-76
2022/01/22 09:41:19;;;;;;;19.08;6.03;;;;;;;-146.64;100.00;45004.84;5045445;28;20376;-77
2022/01/22 09:43:45;;;;;;;20.30;6.18;;;;;;;-146.64;100.00;45556.22;5030898;28;20029;-74
2022/01/22 09:46:11;;;;;;;28.58;8.50;;;;;;;-146.64;100.00;45002.78;5031443;28;20047;-74
2022/01/22 09:48:47;;;;;;;14.80;6.38;;;;;;;-146.64;100.00;45367.63;5066239;28;20100;-74
2022/01/22 09:51:13;;;;;;;24.25;7.80;;;;;;;-146.64;100.00;45648.44;5042610;28;20017;-74
2022/01/22 09:53:40;;;;;;;18.80;7.55;;;;;;;-146.64;100.00;45638.19;5046622;28;20124;-74
2022/01/22 09:56:06;;;;;;;24.38;7.47;;;;;;;-146.64;100.00;45031.47;5068327;28;20040;-74
2022/01/22 09:58:32;;;;;;;15.70;7.50;;;;;;;-146.64;100.00;44859.31;5035636;28;20043;-74
2022/01/22 10:01:22;;;;;;;16.48;7.93;;;;;;;-146.64;100.00;44814.22;5051308;28;20151;-74
2022/01/22 10:03:48;;;;;;;23.60;8.25;;;;;;;-146.64;100.00;44715.84;5067774;28;20036;-74
2022/01/22 10:06:22;;;;;;;23.67;7.83;;;;;;;-146.64;100.00;45962.09;5031839;28;20078;-74
2022/01/22 10:08:47;;;;;;;19.02;6.75;;;;;;;-146.64;100.00;44088.78;5042984;28;20316;-74
2022/01/22 10:11:27;;;;;;;18.20;6.90;;;;;;;-146.64;100.00;43777.34;5051962;28;20060;-75
2022/01/22 10:13:56;;;;;;;13.65;6.68;;;;;;;-146.64;100.00;44588.78;5051286;28;20036;-74
2022/01/22 10:16:22;;;;;;;14.50;7.10;;;;;;;-146.64;100.00;44490.44;5051290;28;20029;-74
2022/01/22 10:19:10;;;;;;;12.35;7.18;;;;;;;-146.64;100.00;45806.28;5051147;28;20024;-75
2022/01/22 10:21:36;;;;;;;15.60;6.57;;;;;;;-146.64;100.00;45019.19;5068583;28;20079;-74
2022/01/22 10:24:44;;;;;;;20.63;7.82;;;;;;;-146.64;100.00;45453.72;5050097;28;20063;-74
2022/01/22 10:27:35;;;;;;;22.23;11.00;;;;;;;-146.64;100.00;46964.69;5050107;28;20020;-74
2022/01/22 10:30:11;;;;;;;33.15;10.32;;;;;;;-146.64;100.00;47762.47;5047819;28;20388;-74
2022/01/22 10:35:30;;;;;;;17.67;8.48;;;;;;;-146.64;100.00;48152.16;5066657;28;20439;-74
2022/01/22 10:37:58;;;;;;;16.85;8.50;;;;;;;-146.64;100.00;47442.50;5068183;28;20032;-74
2022/01/22 10:40:27;;;;;;;20.58;9.10;;;;;;;-146.64;100.00;46558.72;5033820;28;20021;-75
2022/01/22 10:43:10;;;;;;;16.08;9.02;;;;;;;-146.64;100.00;46704.28;5051779;28;20073;-74
2022/01/22 10:45:39;;;;;;;23.15;11.13;;;;;;;-146.64;100.00;46757.59;5060741;28;20024;-75
2022/01/22 10:48:23;;;;;;;21.02;11.38;;;;;;;-146.64;100.00;46298.31;5052226;28;20028;-74
2022/01/22 10:51:00;;;;;;;23.42;11.20;;;;;;;-146.64;100.00;46392.63;5046192;28;20066;-75
2022/01/22 10:53:45;;;;;;;;;;;;;;;-146.64;100.00;46210.16;5047646;28;20985;-75
2022/01/22 10:56:17;;;;;;;23.75;10.63;;;;;;;-146.64;100.00;46003.09;5047276;28;20365;-74
2022/01/22 10:58:59;;;;;;;28.05;11.93;;;;;;;-146.64;100.00;46929.84;5052179;28;20434;-75
2022/01/22 11:01:31;;;;;;;22.92;11.60;;;;;;;-146.64;100.00;46101.50;5065020;28;20047;-74
2022/01/22 11:04:03;;;;;;;28.05;11.38;;;;;;;-146.64;100.00;46134.31;5034815;28;20036;-74
2022/01/22 11:06:29;;;;;;;28.42;13.18;;;;;;;-146.64;100.00;47327.66;5051573;28;20036;-74
2022/01/22 11:08:55;;;;;;;28.67;12.40;;;;;;;-146.64;100.00;47873.22;5044473;28;20021;-75
2022/01/22 11:11:22;;;;;;;24.50;10.80;;;;;;;-146.64;100.00;47606.59;5051595;28;20078;-75
2022/01/22 11:13:47;;;;;;;;;;;;;;;-146.64;100.00;47945.00;5059768;28;20472;-74
2022/01/22 11:16:13;;;;;;;26.63;11.93;;;;;;;-146.64;100.00;48353.19;5045793;28;19955;-75
2022/01/22 11:18:42;;;;;;;34.23;11.63;;;;;;;-146.64;100.00;47241.53;5048497;28;20107;-74
2022/01/22 11:21:07;;;;;;;26.83;12.88;;;;;;;-146.64;100.00;48607.56;5047320;28;20285;-74
2022/01/22 11:23:33;;;;;;;25.83;12.98;;;;;;;-146.64;100.00;48381.91;5030158;28;20029;-75
2022/01/22 11:26:00;;;;;;;28.90;13.40;;;;;;;-146.64;100.00;48742.94;5033045;28;20079;-74
2022/01/22 11:28:26;;;;;;;31.23;14.75;;;;;;;-146.64;100.00;48788.09;5031364;28;20303;-74
2022/01/22 11:30:51;;;;;;;36.20;17.42;;;;;;;-146.64;100.00;47934.75;5068443;28;20024;-75
2022/01/22 11:33:18;;;;;;;29.50;16.65;;;;;;;-146.64;100.00;48623.97;5058950;28;20490;-75
2022/01/22 11:35:52;;;;;;;33.20;15.20;;;;;;;-146.64;100.00;47456.88;5058752;28;20040;-74
2022/01/22 11:38:26;;;;;;;28.23;14.82;;;;;;;-146.64;100.00;47741.94;5075574;28;20044;-75
2022/01/22 11:41:06;;;;;;;25.73;14.63;;;;;;;-146.64;100.00;47235.38;5075031;28;20188;-74
2022/01/22 11:44:04;;;;;;;25.52;15.38;;;;;;;-146.64;100.00;48312.16;5055397;28;20491;-74
2022/01/22 11:46:35;;;;;;;28.60;15.35;;;;;;;-146.64;100.00;50351.66;5065617;28;20586;-74
2022/01/22 11:49:09;;;;;;;30.10;16.23;;;;;;;-146.64;100.00;50895.56;5055313;28;20025;-74
2022/01/22 11:51:34;;;;;;;34.35;17.13;;;;;;;-146.64;100.00;53468.31;5057010;28;20070;-74
2022/01/22 11:54:00;;;;;;;28.98;15.20;;;;;;;-146.64;100.00;52669.41;5057889;28;20065;-74
2022/01/22 11:56:48;;;;;;;37.97;18.48;;;;;;;-146.64;100.00;51924.06;5075336;28;20036;-74
2022/01/22 11:59:23;;;;;;;34.78;17.73;;;;;;;-146.64;100.00;53620.31;5072060;28;20029;-74
2022/01/22 12:01:53;;;;;;;27.88;17.60;;;;;;;-146.64;100.00;50996.13;5075835;28;20027;-74
2022/01/22 12:04:21;;;;;;;36.80;18.77;;;;;;;-146.64;100.00;53162.31;5057544;28;20517;-74
2022/01/22 12:07:02;;;;;;;32.85;18.42;;;;;;;-146.64;100.00;53476.53;5071176;28;20218;-74
2022/01/22 12:09:33;;;;;;;33.75;19.23;;;;;;;-146.64;100.00;51831.66;5052624;28;20450;-74
2022/01/22 12:15:14;;;;;;;40.13;21.20;;;;;;;-146.64;100.00;52117.06;5053045;28;20055;-74
2022/01/22 12:17:56;;;;;;;37.97;19.75;;;;;;;-146.64;100.00;52581.13;5062533;28;20029;-74
2022/01/22 12:23:09;;;;;;;29.50;19.58;;;;;;;-146.64;100.00;49863.22;5072611;28;20036;-74
2022/01/22 12:25:34;;;;;;;37.30;20.98;;;;;;;-146.64;100.00;50688.25;5064613;28;20032;-74
2022/01/22 12:28:00;;;;;;;38.60;20.48;;;;;;;-146.64;100.00;48966.56;5051856;28;20468;-74
2022/01/22 12:30:36;;;;;;;40.92;21.20;;;;;;;-146.64;100.00;48102.94;5055994;28;20575;-74
2022/01/22 12:33:01;;;;;;;36.70;20.90;;;;;;;-146.64;100.00;47623.00;5055306;28;20028;-74
2022/01/22 12:35:47;;;;;;;33.88;20.73;;;;;;;-146.64;100.00;47389.19;5047375;28;20074;-74
2022/01/22 12:38:32;;;;;;;39.10;20.95;;;;;;;-146.64;100.00;46450.03;5069625;28;20040;-74
2022/01/22 12:44:05;;;;;;;38.45;20.38;;;;;;;-146.64;100.00;46687.88;5074458;28;20040;-75
2022/01/22 12:46:31;;;;;;;;;;;;;;;-146.64;100.00;46751.44;5074478;28;20438;-74